Time;durP1;ratioP1;P1;durP2;ratioP2;P2;SDS_P1;SDS_P2;PMS_P1;PMS_P2;Temp;Humidity;BMP_temperature;BMP_pressure;BME280_temperature;BME280_humidity;BME280_pressure;Samples;Min_cycle;Max_cycle;Signal;HPM_P1;HPM_P2
2021/06/24 00:01:02;;;;;;;6.00;5.50;;;;;;;22.21;100.00;97668.00;5040968;28;20646;-66
2021/06/24 00:03:30;;;;;;;6.07;5.57;;;;;;;22.27;100.00;97666.50;5024555;28;20256;-65
2021/06/24 00:05:57;;;;;;;6.27;5.67;;;;;;;21.99;100.00;97620.44;5019664;28;20224;-67
2021/06/24 00:08:24;;;;;;;6.10;5.57;;;;;;;22.27;100.00;97694.66;5030041;28;20724;-67
2021/06/24 00:10:51;;;;;;;6.23;5.70;;;;;;;21.93;100.00;97645.84;5019204;28;20775;-67
2021/06/24 00:13:18;;;;;;;5.53;5.03;;;;;;;22.15;100.00;97694.31;5025614;28;20264;-65
2021/06/24 00:15:44;;;;;;;5.50;5.00;;;;;;;22.15;100.00;97678.94;5039865;28;20240;-66
2021/06/24 00:18:11;;;;;;;5.83;5.33;;;;;;;22.41;100.00;97707.88;5037438;28;20229;-67
2021/06/24 00:20:38;;;;;;;6.27;5.40;;;;;;;21.05;100.00;97472.69;5034752;28;20630;-65
2021/06/24 00:23:05;;;;;;;6.00;5.33;;;;;;;22.30;100.00;97681.06;5024208;28;20220;-67
2021/06/24 00:25:32;;;;;;;6.60;6.00;;;;;;;22.42;100.00;97674.63;5018678;28;20212;-66
2021/06/24 00:27:59;;;;;;;5.93;5.43;;;;;;;22.24;100.00;97630.56;5044190;28;20200;-65
2021/06/24 00:30:26;;;;;;;6.17;5.57;;;;;;;22.42;100.00;97653.25;5035963;28;20308;-67
2021/06/24 00:32:53;;;;;;;5.70;5.20;;;;;;;22.00;100.00;97567.59;5041459;28;20608;-66
2021/06/24 00:35:20;;;;;;;5.70;5.20;;;;;;;21.20;100.00;97422.88;5037810;28;20255;-66
2021/06/24 00:37:47;;;;;;;6.13;5.63;;;;;;;22.26;100.00;97590.50;5042912;28;20240;-67
2021/06/24 00:40:14;;;;;;;5.57;5.07;;;;;;;22.10;100.00;97516.69;5026085;28;20223;-66
2021/06/24 00:42:41;;;;;;;5.87;5.37;;;;;;;22.41;100.00;97549.94;5025666;28;20321;-66
2021/06/24 00:45:09;;;;;;;6.30;5.70;;;;;;;22.41;100.00;97561.91;5045958;28;20243;-66
2021/06/24 00:47:36;;;;;;;5.93;5.43;;;;;;;22.21;100.00;97519.53;5039119;28;20292;-66
2021/06/24 00:50:03;;;;;;;5.87;5.37;;;;;;;21.99;100.00;97478.84;5041181;28;20284;-67
2021/06/24 00:52:30;;;;;;;5.43;4.93;;;;;;;22.22;100.00;97493.09;5039744;28;20263;-68
2021/06/24 00:54:57;;;;;;;5.27;4.87;;;;;;;22.20;100.00;97475.13;5044048;28;20294;-68
2021/06/24 00:57:26;;;;;;;6.23;5.30;;;;;;;21.45;100.00;97324.72;5044489;28;20288;-66
2021/06/24 00:59:53;;;;;;;5.57;5.07;;;;;;;21.61;100.00;97340.50;5025272;28;20312;-67
2021/06/24 01:02:20;;;;;;;5.40;4.90;;;;;;;21.94;100.00;97393.41;5003978;28;20236;-67
2021/06/24 01:04:46;;;;;;;5.30;4.80;;;;;;;21.77;100.00;97369.94;5032823;28;20275;-67
2021/06/24 01:07:13;;;;;;;5.20;4.80;;;;;;;22.16;100.00;97455.41;5038775;28;20240;-68
2021/06/24 01:09:39;;;;;;;5.27;4.77;;;;;;;21.88;100.00;97414.59;5037602;28;20582;-65
2021/06/24 01:12:07;;;;;;;5.17;4.67;;;;;;;22.32;100.00;97488.25;5039838;28;20232;-66
2021/06/24 01:14:35;;;;;;;5.60;5.10;;;;;;;22.36;100.00;97490.09;5034378;28;20318;-67
2021/06/24 01:17:01;;;;;;;5.40;5.00;;;;;;;22.38;100.00;97503.78;5040296;28;20644;-66
2021/06/24 01:19:28;;;;;;;5.97;5.47;;;;;;;22.39;100.00;97495.28;5043632;28;20621;-66
2021/06/24 01:21:56;;;;;;;5.47;4.97;;;;;;;22.39;100.00;97500.41;5072969;22;20324;-64
2021/06/24 01:24:23;;;;;;;5.53;5.03;;;;;;;22.39;100.00;97504.66;4996382;28;20208;-65
2021/06/24 01:26:50;;;;;;;5.53;5.10;;;;;;;22.11;100.00;97458.69;5007794;28;20216;-65
2021/06/24 01:29:16;;;;;;;5.20;4.70;;;;;;;22.26;100.00;97503.47;4992503;28;20289;-66
2021/06/24 01:31:43;;;;;;;5.23;4.73;;;;;;;20.97;100.00;97290.19;5003091;28;20304;-61
2021/06/24 01:34:11;;;;;;;4.80;4.40;;;;;;;22.41;100.00;97546.53;5024844;28;20208;-65
2021/06/24 01:36:37;;;;;;;5.30;4.80;;;;;;;22.40;100.00;97561.03;5003291;28;20321;-61
2021/06/24 01:39:05;;;;;;;4.77;4.37;;;;;;;21.51;100.00;97417.81;5020850;28;20653;-65
2021/06/24 01:41:32;;;;;;;4.90;4.50;;;;;;;22.39;100.00;97573.78;5018078;28;20225;-61
2021/06/24 01:43:59;;;;;;;5.80;4.80;;;;;;;22.40;100.00;97580.63;5009760;28;20233;-61
2021/06/24 01:46:25;;;;;;;5.07;4.67;;;;;;;20.49;100.00;97256.41;5022228;28;20409;-65
2021/06/24 01:48:52;;;;;;;5.43;4.93;;;;;;;21.71;100.00;97466.97;5001707;28;20233;-65
2021/06/24 01:51:18;;;;;;;5.13;4.63;;;;;;;22.39;100.00;97590.03;5007137;28;20662;-65
2021/06/24 01:53:45;;;;;;;4.97;4.50;;;;;;;22.39;100.00;97596.84;5023556;28;20247;-65
2021/06/24 01:56:12;;;;;;;6.03;4.80;;;;;;;22.38;100.00;97592.56;5002450;28;20517;-65
2021/06/24 01:58:38;;;;;;;4.97;4.57;;;;;;;22.38;100.00;97588.28;5019440;28;20289;-64
2021/06/24 02:01:05;;;;;;;4.90;4.50;;;;;;;21.72;100.00;97481.47;5018377;28;20230;-65
2021/06/24 02:03:37;;;;;;;5.07;4.60;;;;;;;22.38;100.00;97598.50;5026782;28;20566;-61
2021/06/24 02:06:04;;;;;;;4.57;4.17;;;;;;;22.21;100.00;97576.72;5020146;28;20284;-65
2021/06/24 02:08:31;;;;;;;4.60;4.13;;;;;;;22.37;100.00;97601.03;5020831;28;20452;-65
2021/06/24 02:10:58;;;;;;;5.77;4.60;;;;;;;22.37;100.00;97617.28;5019122;28;20258;-64
2021/06/24 02:13:25;;;;;;;4.63;4.23;;;;;;;22.27;100.00;97599.94;5020273;28;20202;-65
2021/06/24 02:15:51;;;;;;;5.20;4.50;;;;;;;22.37;100.00;97616.41;5014597;28;20260;-65
2021/06/24 02:18:18;;;;;;;4.73;4.13;;;;;;;22.38;100.00;97615.59;5018361;28;20201;-64
2021/06/24 02:20:45;;;;;;;4.60;4.20;;;;;;;21.41;100.00;97469.50;5017074;28;20229;-65
2021/06/24 02:23:11;;;;;;;4.77;4.27;;;;;;;22.01;100.00;97556.50;5022299;28;20205;-64
2021/06/24 02:25:38;;;;;;;4.60;4.20;;;;;;;22.39;100.00;97618.19;5023696;28;20289;-65
2021/06/24 02:28:05;;;;;;;4.63;4.23;;;;;;;22.39;100.00;97622.44;5020447;28;20201;-65
2021/06/24 02:30:31;;;;;;;4.67;4.27;;;;;;;22.18;100.00;97581.78;5016389;28;21315;-65
2021/06/24 02:32:58;;;;;;;4.77;4.27;;;;;;;22.20;100.00;97579.25;5014198;28;20210;-64
2021/06/24 02:35:25;;;;;;;4.57;4.17;;;;;;;22.39;100.00;97613.06;5023298;28;20281;-65
2021/06/24 02:37:54;;;;;;;4.90;4.50;;;;;;;22.39;100.00;97612.19;5019856;28;20244;-65
2021/06/24 02:40:21;;;;;;;4.77;4.37;;;;;;;22.39;100.00;97617.31;5018919;28;20217;-65
2021/06/24 02:42:47;;;;;;;4.37;3.97;;;;;;;22.40;100.00;97619.03;5028280;28;20244;-62
2021/06/24 02:45:14;;;;;;;4.47;4.00;;;;;;;22.39;100.00;97612.19;5023632;28;20664;-65
2021/06/24 02:47:41;;;;;;;4.30;4.00;;;;;;;22.39;100.00;97613.06;5020522;28;20301;-65
2021/06/24 02:50:08;;;;;;;4.67;4.27;;;;;;;22.39;100.00;97612.19;5018782;28;20370;-65
2021/06/24 02:52:35;;;;;;;4.47;4.07;;;;;;;22.40;100.00;97604.56;5023361;28;20221;-65
2021/06/24 02:55:02;;;;;;;5.00;4.50;;;;;;;22.39;100.00;97599.41;5020210;28;20197;-65
2021/06/24 02:57:28;;;;;;;4.00;3.70;;;;;;;22.39;100.00;97597.72;4999664;28;20292;-65
2021/06/24 02:59:55;;;;;;;4.57;4.17;;;;;;;22.39;100.00;97596.84;5021146;28;20261;-65
2021/06/24 03:02:21;;;;;;;3.80;3.50;;;;;;;21.54;100.00;97465.63;5019254;28;21721;-65
2021/06/24 03:04:49;;;;;;;4.50;4.10;;;;;;;21.95;100.00;97531.63;5019648;28;20623;-65
2021/06/24 03:07:16;;;;;;;4.30;3.90;;;;;;;21.94;100.00;97521.34;5015135;28;20292;-61
2021/06/24 03:09:42;;;;;;;4.43;4.03;;;;;;;22.40;100.00;97603.69;5001002;28;20289;-65
2021/06/24 03:12:09;;;;;;;3.87;3.57;;;;;;;22.40;100.00;97606.25;5016552;28;20750;-65
2021/06/24 03:14:36;;;;;;;3.97;3.67;;;;;;;22.39;100.00;97604.50;5018933;28;20289;-65
2021/06/24 03:17:02;;;;;;;4.43;3.90;;;;;;;22.39;100.00;97601.94;5021225;28;20292;-65
2021/06/24 03:19:29;;;;;;;3.90;3.60;;;;;;;22.37;100.00;97588.22;5018857;28;20217;-64
2021/06/24 03:21:56;;;;;;;3.77;3.47;;;;;;;22.37;100.00;97586.56;5018102;28;20233;-65
2021/06/24 03:24:22;;;;;;;4.83;3.60;;;;;;;22.16;100.00;97549.25;5007318;28;20213;-63
2021/06/24 03:26:49;;;;;;;4.00;3.70;;;;;;;22.38;100.00;97590.00;4998200;28;20241;-63
2021/06/24 03:29:16;;;;;;;9.83;3.47;;;;;;;21.85;100.00;97508.31;5016470;28;20233;-65
2021/06/24 03:31:43;;;;;;;4.17;3.87;;;;;;;22.37;100.00;97580.56;5016190;28;20280;-65
2021/06/24 03:34:09;;;;;;;4.50;3.63;;;;;;;22.37;100.00;97586.56;5022662;28;20292;-64
2021/06/24 03:36:36;;;;;;;4.23;3.83;;;;;;;22.36;100.00;97582.25;5018487;28;20876;-65
2021/06/24 03:39:03;;;;;;;4.27;3.87;;;;;;;21.11;100.00;97363.81;5023011;28;20288;-61
2021/06/24 03:41:30;;;;;;;4.40;4.00;;;;;;;21.01;100.00;97358.41;5013253;28;20320;-64
2021/06/24 03:43:57;;;;;;;3.90;3.57;;;;;;;20.97;100.00;97333.63;5026267;28;20244;-65
2021/06/24 03:46:24;;;;;;;3.93;3.63;;;;;;;22.36;100.00;97572.03;5018698;28;20238;-65
2021/06/24 03:48:51;;;;;;;4.10;3.53;;;;;;;22.37;100.00;97572.88;5007875;28;20261;-65
2021/06/24 03:51:18;;;;;;;4.77;3.83;;;;;;;22.29;100.00;97549.63;5013095;28;20760;-64
2021/06/24 03:53:45;;;;;;;3.70;3.40;;;;;;;22.29;100.00;97552.19;5008774;28;20679;-65
2021/06/24 03:56:11;;;;;;;3.70;3.40;;;;;;;22.39;100.00;97566.97;4990213;28;20292;-64
2021/06/24 03:58:38;;;;;;;4.00;3.70;;;;;;;21.01;100.00;97331.19;5009423;28;20495;-64
2021/06/24 04:01:05;;;;;;;3.50;3.30;;;;;;;22.38;100.00;97564.38;5015574;28;20320;-64
2021/06/24 04:03:31;;;;;;;3.57;3.30;;;;;;;21.78;100.00;97455.22;5014950;28;20209;-64
2021/06/24 04:05:58;;;;;;;3.90;3.10;;;;;;;22.22;100.00;97534.94;5028972;28;20229;-65
2021/06/24 04:08:25;;;;;;;3.30;3.10;;;;;;;22.39;100.00;97564.41;5026856;28;20636;-65
2021/06/24 04:11:00;;;;;;;4.87;3.57;;;;;;;22.19;100.00;97541.66;5029493;28;20312;-65
2021/06/24 04:13:28;;;;;;;3.70;3.40;;;;;;;22.40;100.00;97567.81;5007256;28;20292;-63
2021/06/24 04:15:54;;;;;;;3.70;3.40;;;;;;;21.98;100.00;97515.47;5022143;28;20319;-65
2021/06/24 04:18:21;;;;;;;3.87;3.57;;;;;;;22.26;100.00;97554.66;5025016;28;20582;-65
2021/06/24 04:20:47;;;;;;;3.53;3.23;;;;;;;22.30;100.00;97559.06;5023686;28;20253;-65
2021/06/24 04:23:14;;;;;;;3.47;3.17;;;;;;;22.41;100.00;97574.72;5024236;28;20835;-64
2021/06/24 04:25:41;;;;;;;3.87;3.57;;;;;;;22.25;100.00;97546.94;5023721;28;20328;-64
2021/06/24 04:28:07;;;;;;;4.13;3.10;;;;;;;21.76;100.00;97462.00;5022776;28;20202;-65
2021/06/24 04:30:34;;;;;;;3.53;3.23;;;;;;;21.66;100.00;97451.47;5027368;28;20367;-65
2021/06/24 04:33:01;;;;;;;3.77;3.40;;;;;;;21.29;100.00;97374.56;5027266;28;20288;-65
2021/06/24 04:35:27;;;;;;;4.57;3.57;;;;;;;21.93;100.00;97482.09;5005408;28;20241;-65
2021/06/24 04:37:54;;;;;;;3.57;3.27;;;;;;;21.14;100.00;97345.19;5014904;28;20264;-63
2021/06/24 04:40:21;;;;;;;3.97;3.57;;;;;;;22.40;100.00;97566.16;5009156;28;20348;-65
2021/06/24 04:42:48;;;;;;;3.60;3.30;;;;;;;22.12;100.00;97514.16;5029243;28;20769;-61
2021/06/24 04:45:15;;;;;;;3.50;3.20;;;;;;;22.41;100.00;97561.91;5030890;28;20745;-65
2021/06/24 04:47:41;;;;;;;3.73;3.43;;;;;;;22.39;100.00;97568.66;5031950;28;20198;-65
2021/06/24 04:50:08;;;;;;;3.87;3.37;;;;;;;22.39;100.00;97560.97;5026657;28;20311;-65
2021/06/24 04:52:35;;;;;;;3.53;3.23;;;;;;;22.39;100.00;97553.31;5030030;28;20309;-62
2021/06/24 04:55:03;;;;;;;3.60;3.30;;;;;;;22.40;100.00;97565.25;5027619;28;20226;-65
2021/06/24 04:57:29;;;;;;;3.97;3.40;;;;;;;22.17;100.00;97518.56;5025851;28;20225;-65
2021/06/24 04:59:56;;;;;;;3.70;3.40;;;;;;;22.40;100.00;97562.72;5026091;28;20687;-65
2021/06/24 05:02:23;;;;;;;3.60;3.30;;;;;;;21.13;100.00;97341.75;5025586;28;20240;-63
2021/06/24 05:04:50;;;;;;;3.73;3.43;;;;;;;21.54;100.00;97412.78;5023355;28;20301;-64
2021/06/24 05:07:17;;;;;;;4.50;3.40;;;;;;;22.41;100.00;97556.78;5008074;28;20722;-65
2021/06/24 05:09:45;;;;;;;3.40;3.10;;;;;;;22.40;100.00;97553.34;5028417;28;20825;-65
2021/06/24 05:12:11;;;;;;;3.70;3.40;;;;;;;22.41;100.00;97549.94;5022380;28;20249;-65
2021/06/24 05:14:39;;;;;;;3.20;3.00;;;;;;;22.41;100.00;97556.78;5015252;28;20233;-66
2021/06/24 05:17:06;;;;;;;3.70;3.03;;;;;;;22.02;100.00;97494.28;5030450;28;20194;-62
2021/06/24 05:19:33;;;;;;;3.60;3.30;;;;;;;22.42;100.00;97549.13;5013576;28;20430;-64
2021/06/24 05:22:00;;;;;;;2.93;2.73;;;;;;;22.23;100.00;97512.78;5023400;28;20317;-65
2021/06/24 05:24:27;;;;;;;3.70;3.40;;;;;;;22.41;100.00;97544.81;5013507;28;20198;-66
2021/06/24 05:26:53;;;;;;;3.53;3.23;;;;;;;22.43;100.00;97547.41;5022320;28;20249;-67
2021/06/24 05:29:20;;;;;;;5.23;3.00;;;;;;;22.42;100.00;97561.06;5026353;28;20634;-66
2021/06/24 05:31:46;;;;;;;4.10;3.67;;;;;;;22.42;100.00;97564.50;5022921;28;20309;-65
2021/06/24 05:34:13;;;;;;;4.10;3.70;;;;;;;22.41;100.00;97560.19;5026766;28;20232;-65
2021/06/24 05:36:40;;;;;;;4.00;3.60;;;;;;;22.43;100.00;97565.34;5020820;28;20707;-65
2021/06/24 05:39:06;;;;;;;4.70;4.27;;;;;;;22.43;100.00;97566.22;5027801;28;20201;-66
2021/06/24 05:41:33;;;;;;;5.23;4.27;;;;;;;22.42;100.00;97572.19;5023557;28;20245;-66
2021/06/24 05:44:00;;;;;;;4.47;4.07;;;;;;;22.42;100.00;97572.19;5028179;28;20663;-64
2021/06/24 05:46:28;;;;;;;5.47;4.63;;;;;;;22.42;100.00;97568.75;5024042;28;20252;-66
2021/06/24 05:48:55;;;;;;;5.60;4.27;;;;;;;22.41;100.00;97562.75;5022964;28;20640;-65
2021/06/24 05:51:24;;;;;;;6.10;4.20;;;;;;;22.41;100.00;97560.19;5025320;28;20257;-65
2021/06/24 05:53:51;;;;;;;5.00;3.97;;;;;;;22.39;100.00;97561.84;5021972;28;20294;-65
2021/06/24 05:56:19;;;;;;;4.93;4.43;;;;;;;22.38;100.00;97560.09;5027626;28;20285;-64
2021/06/24 05:58:46;;;;;;;5.10;3.80;;;;;;;22.38;100.00;97567.78;5022730;28;20230;-63
2021/06/24 06:01:14;;;;;;;4.73;4.33;;;;;;;22.37;100.00;97557.50;5025120;28;20252;-64
2021/06/24 06:03:41;;;;;;;5.07;4.07;;;;;;;22.36;100.00;97551.53;5021024;28;20198;-65
2021/06/24 06:06:08;;;;;;;4.30;3.70;;;;;;;22.36;100.00;97550.66;5024273;28;20221;-65
2021/06/24 06:08:34;;;;;;;4.23;3.83;;;;;;;22.36;100.00;97548.97;5027563;28;20280;-65
2021/06/24 06:11:01;;;;;;;5.13;4.10;;;;;;;22.36;100.00;97542.97;5005149;28;20305;-65
2021/06/24 06:13:27;;;;;;;4.23;3.83;;;;;;;22.35;100.00;97547.22;5020884;28;20255;-65
2021/06/24 06:15:54;;;;;;;4.30;3.90;;;;;;;22.35;100.00;97536.13;5020985;28;20230;-65
2021/06/24 06:18:24;;;;;;;4.07;3.67;;;;;;;22.36;100.00;97537.84;5023699;28;20613;-64
2021/06/24 06:20:54;;;;;;;4.40;4.00;;;;;;;22.36;100.00;97530.19;5004527;28;20261;-65
2021/06/24 06:23:22;;;;;;;3.93;3.63;;;;;;;22.36;100.00;97533.63;5022554;28;20201;-65
2021/06/24 06:25:49;;;;;;;3.97;3.57;;;;;;;22.36;100.00;97536.19;5007461;28;20233;-65
2021/06/24 06:28:16;;;;;;;5.33;3.97;;;;;;;22.37;100.00;97537.03;5003056;28;20288;-62
2021/06/24 06:30:46;;;;;;;3.37;3.07;;;;;;;22.37;100.00;97537.03;5022215;28;20220;-65
2021/06/24 06:33:12;;;;;;;4.57;4.17;;;;;;;22.37;100.00;97537.03;5023028;28;20225;-64
2021/06/24 06:35:39;;;;;;;4.37;3.97;;;;;;;22.37;100.00;97535.34;5016682;28;20198;-65
2021/06/24 06:38:06;;;;;;;4.20;3.80;;;;;;;22.38;100.00;97531.94;5022162;28;20697;-64
2021/06/24 06:40:32;;;;;;;3.67;3.37;;;;;;;22.38;100.00;97539.63;5029846;28;20260;-65
2021/06/24 06:42:59;;;;;;;4.23;3.30;;;;;;;21.47;100.00;97392.13;5033035;28;20284;-65
2021/06/24 06:45:30;;;;;;;3.53;3.23;;;;;;;22.19;100.00;97521.19;5018274;28;20194;-65
2021/06/24 06:47:58;;;;;;;3.63;3.33;;;;;;;22.39;100.00;97546.50;5030919;28;20282;-65
2021/06/24 06:50:25;;;;;;;4.07;3.27;;;;;;;21.82;100.00;97454.50;5014918;28;20198;-64
2021/06/24 06:52:51;;;;;;;3.97;3.57;;;;;;;21.91;100.00;97476.09;5033521;28;20296;-65
2021/06/24 06:55:18;;;;;;;3.80;3.40;;;;;;;21.19;100.00;97351.25;5024909;28;20224;-65
2021/06/24 06:57:45;;;;;;;3.83;3.53;;;;;;;22.13;100.00;97519.34;5004457;28;20272;-65
2021/06/24 07:00:11;;;;;;;3.40;3.10;;;;;;;21.49;100.00;97411.78;4990763;28;20368;-65
2021/06/24 07:02:38;;;;;;;4.00;3.60;;;;;;;21.94;100.00;97485.53;5017430;28;20324;-65
2021/06/24 07:05:07;;;;;;;3.83;3.53;;;;;;;21.97;100.00;97488.16;5003453;28;20259;-63
2021/06/24 07:07:34;;;;;;;3.57;3.27;;;;;;;22.38;100.00;97560.09;5027096;28;20643;-65
2021/06/24 07:10:01;;;;;;;4.83;3.13;;;;;;;21.99;100.00;97500.16;5032230;28;20300;-64
2021/06/24 07:12:28;;;;;;;3.60;3.30;;;;;;;21.67;100.00;97432.75;5026467;28;20214;-65
2021/06/24 07:14:55;;;;;;;3.80;3.27;;;;;;;22.37;100.00;97558.38;5028396;28;20289;-61
2021/06/24 07:17:21;;;;;;;3.10;2.90;;;;;;;21.70;100.00;97435.38;5024777;28;20230;-65
2021/06/24 07:19:48;;;;;;;4.00;3.60;;;;;;;22.22;100.00;97534.94;5027823;28;20209;-65
2021/06/24 07:22:15;;;;;;;5.80;3.53;;;;;;;22.37;100.00;97544.69;5054005;22;20315;-67
2021/06/24 07:24:41;;;;;;;3.60;3.30;;;;;;;22.26;100.00;97531.63;5030107;28;20223;-65
2021/06/24 07:27:08;;;;;;;4.60;3.30;;;;;;;22.37;100.00;97547.25;5030877;28;20232;-66
2021/06/24 07:29:35;;;;;;;3.90;3.50;;;;;;;22.37;100.00;97539.56;5031702;28;20726;-64
2021/06/24 07:32:04;;;;;;;3.87;3.57;;;;;;;22.38;100.00;97549.03;5038160;28;20225;-66
2021/06/24 07:34:30;;;;;;;3.57;3.27;;;;;;;22.37;100.00;97544.69;5049792;28;20284;-67
2021/06/24 07:36:57;;;;;;;4.87;3.33;;;;;;;22.33;100.00;97541.22;5051021;28;20243;-67
2021/06/24 07:39:23;;;;;;;4.03;3.63;;;;;;;22.39;100.00;97540.50;5052260;28;20288;-66
2021/06/24 07:41:50;;;;;;;5.23;3.53;;;;;;;22.29;100.00;97530.84;5053075;28;20697;-67
2021/06/24 07:44:17;;;;;;;4.20;3.80;;;;;;;22.38;100.00;97544.75;5049415;28;20640;-65
2021/06/24 07:46:44;;;;;;;4.07;3.70;;;;;;;22.37;100.00;97548.13;5052987;28;20278;-67
2021/06/24 07:49:11;;;;;;;3.90;3.60;;;;;;;22.28;100.00;97531.66;5051863;28;20201;-67
2021/06/24 07:51:38;;;;;;;3.50;3.20;;;;;;;22.40;100.00;97549.91;5052561;28;20244;-67
2021/06/24 07:54:05;;;;;;;3.80;3.40;;;;;;;22.40;100.00;97552.47;5050458;28;20674;-67
2021/06/24 07:56:31;;;;;;;4.03;3.73;;;;;;;21.94;100.00;97473.59;5035533;28;20236;-66
2021/06/24 07:58:58;;;;;;;4.43;3.63;;;;;;;22.30;100.00;97530.00;5044259;28;20251;-66
2021/06/24 08:01:24;;;;;;;3.87;3.50;;;;;;;22.22;100.00;97516.13;5035153;28;20761;-66
2021/06/24 08:03:52;;;;;;;5.80;3.40;;;;;;;22.40;100.00;97549.91;5052958;28;20251;-68
2021/06/24 08:06:19;;;;;;;3.50;3.20;;;;;;;22.40;100.00;97549.91;5052673;28;20284;-68
2021/06/24 08:08:45;;;;;;;3.80;3.50;;;;;;;22.40;100.00;97547.34;5053156;28;20683;-66
2021/06/24 08:11:12;;;;;;;3.63;3.33;;;;;;;22.09;100.00;97489.38;5051741;28;20566;-67
2021/06/24 08:13:39;;;;;;;4.73;3.60;;;;;;;22.39;100.00;97537.94;5052034;28;20197;-67
2021/06/24 08:16:06;;;;;;;3.67;3.37;;;;;;;22.39;100.00;97553.31;5050823;28;20201;-66
2021/06/24 08:18:32;;;;;;;3.67;3.37;;;;;;;22.28;100.00;97534.22;5052699;28;20705;-67
2021/06/24 08:21:01;;;;;;;3.47;3.17;;;;;;;22.28;100.00;97534.22;5052989;28;21394;-67
2021/06/24 08:23:27;;;;;;;3.40;3.10;;;;;;;22.26;100.00;97534.19;5051668;28;20295;-66
2021/06/24 08:25:54;;;;;;;4.10;3.43;;;;;;;22.27;100.00;97524.81;5052548;28;20288;-66
2021/06/24 08:28:21;;;;;;;5.53;3.50;;;;;;;22.24;100.00;97532.41;5052614;28;20627;-66
2021/06/24 08:30:48;;;;;;;3.50;3.20;;;;;;;22.38;100.00;97559.25;5050842;28;20283;-64
2021/06/24 08:33:15;;;;;;;3.57;3.27;;;;;;;22.38;100.00;97554.13;5046638;28;20220;-68
2021/06/24 08:35:42;;;;;;;3.70;3.40;;;;;;;22.37;100.00;97550.69;5051248;28;20867;-68
2021/06/24 08:38:11;;;;;;;3.70;3.40;;;;;;;22.27;100.00;97538.50;5049125;28;20312;-67
2021/06/24 08:40:40;;;;;;;3.93;3.53;;;;;;;22.38;100.00;97554.97;5047444;28;20298;-68
2021/06/24 08:43:08;;;;;;;3.30;3.00;;;;;;;22.38;100.00;97547.31;5051120;28;20316;-67
2021/06/24 08:45:35;;;;;;;3.30;3.00;;;;;;;22.34;100.00;97542.06;5050507;28;20577;-67
2021/06/24 08:48:02;;;;;;;4.10;3.60;;;;;;;22.32;100.00;97538.63;5047572;28;20280;-67
2021/06/24 08:50:28;;;;;;;3.70;3.40;;;;;;;22.38;100.00;97552.41;5049449;28;20196;-66
2021/06/24 08:52:55;;;;;;;3.80;3.40;;;;;;;22.39;100.00;97548.19;5050200;28;20760;-67
2021/06/24 08:55:22;;;;;;;4.00;3.27;;;;;;;22.13;100.00;97505.66;5051541;28;20237;-65
2021/06/24 08:57:50;;;;;;;3.60;3.30;;;;;;;22.39;100.00;97551.63;5034265;28;20255;-67
2021/06/24 09:00:18;;;;;;;3.50;3.20;;;;;;;22.40;100.00;97555.03;5049808;28;20251;-67
2021/06/24 09:02:49;;;;;;;3.47;3.17;;;;;;;22.40;100.00;97553.34;5050949;28;20220;-67
2021/06/24 09:05:16;;;;;;;2.93;2.73;;;;;;;21.90;100.00;97471.78;5044109;28;20203;-64
2021/06/24 09:08:02;;;;;;;3.23;3.00;;;;;;;22.40;100.00;97557.59;5040099;28;20235;-67
2021/06/24 09:10:29;;;;;;;3.10;2.83;;;;;;;22.41;100.00;97554.22;5055159;28;20228;-68
2021/06/24 09:12:57;;;;;;;3.27;3.07;;;;;;;22.31;100.00;97539.41;5050434;28;20328;-65
2021/06/24 09:15:24;;;;;;;3.27;2.97;;;;;;;22.08;100.00;97500.41;5050102;28;20201;-67
2021/06/24 09:17:51;;;;;;;3.53;3.23;;;;;;;22.40;100.00;97555.91;5040349;28;20200;-68
2021/06/24 09:20:18;;;;;;;3.30;3.00;;;;;;;22.40;100.00;97555.03;5051992;28;20201;-66
2021/06/24 09:23:15;;;;;;;3.63;3.07;;;;;;;22.33;100.00;97541.22;5051794;28;20294;-68
2021/06/24 09:25:45;;;;;;;3.43;3.13;;;;;;;22.11;100.00;97502.22;5047014;28;20738;-67
2021/06/24 09:28:12;;;;;;;3.03;2.83;;;;;;;22.39;100.00;97538.81;5044291;28;20232;-67
2021/06/24 09:30:41;;;;;;;3.40;3.13;;;;;;;22.28;100.00;97527.41;5032562;28;20255;-68
2021/06/24 09:33:08;;;;;;;3.03;2.80;;;;;;;22.39;100.00;97543.06;5031479;28;20217;-67
2021/06/24 09:35:35;;;;;;;3.47;3.20;;;;;;;22.37;100.00;97544.69;5049962;28;20201;-67
2021/06/24 09:38:10;;;;;;;3.00;2.80;;;;;;;22.37;100.00;97534.47;5042839;28;20197;-68
2021/06/24 09:41:15;;;;;;;3.27;3.00;;;;;;;22.37;100.00;97531.91;5047631;28;20250;-67
2021/06/24 09:43:44;;;;;;;3.17;2.87;;;;;;;22.24;100.00;97509.38;5039122;28;20295;-68
2021/06/24 09:46:15;;;;;;;3.00;2.80;;;;;;;22.38;100.00;97536.22;5033381;28;20193;-67
2021/06/24 09:48:43;;;;;;;2.93;2.73;;;;;;;22.37;100.00;97537.03;5049450;28;20299;-67
2021/06/24 09:51:20;;;;;;;3.00;2.80;;;;;;;22.21;100.00;97520.41;5047078;28;20621;-68
2021/06/24 09:53:48;;;;;;;3.43;2.93;;;;;;;22.37;100.00;97534.47;5035104;28;20255;-67
2021/06/24 09:56:34;;;;;;;3.10;2.80;;;;;;;22.37;100.00;97535.34;5044165;28;20215;-68
2021/06/24 09:59:05;;;;;;;3.00;2.80;;;;;;;21.98;100.00;97461.75;5047618;28;20343;-69
2021/06/24 10:01:44;;;;;;;3.57;3.03;;;;;;;22.38;100.00;97539.63;5049754;28;20252;-66
2021/06/24 10:04:21;;;;;;;3.27;2.97;;;;;;;22.39;100.00;97527.69;5047941;28;20289;-67
2021/06/24 10:06:53;;;;;;;2.90;2.60;;;;;;;22.22;100.00;97504.22;5051067;28;20276;-68
2021/06/24 10:09:20;;;;;;;4.10;3.17;;;;;;;22.39;100.00;97536.25;5035280;28;20312;-66
2021/06/24 10:11:47;;;;;;;3.33;3.07;;;;;;;22.23;100.00;97505.09;5051483;28;20256;-67
2021/06/24 10:14:16;;;;;;;3.17;2.87;;;;;;;22.28;100.00;97521.41;5049802;28;20588;-68
2021/06/24 10:16:43;;;;;;;3.00;2.80;;;;;;;22.35;100.00;97538.69;5051026;28;20201;-67
2021/06/24 10:19:10;;;;;;;2.93;2.73;;;;;;;22.29;100.00;97529.13;5049506;28;20880;-67
2021/06/24 10:21:36;;;;;;;3.63;3.33;;;;;;;22.40;100.00;97537.97;5031125;28;20252;-64
2021/06/24 10:24:08;;;;;;;2.90;2.60;;;;;;;22.30;100.00;97528.34;5033008;28;20284;-67
2021/06/24 10:26:38;;;;;;;3.73;3.43;;;;;;;22.30;100.00;97524.91;5033347;28;20586;-66
2021/06/24 10:29:15;;;;;;;3.20;2.60;;;;;;;22.41;100.00;97538.84;5046460;28;20197;-67
2021/06/24 10:31:51;;;;;;;2.70;2.50;;;;;;;22.41;100.00;97546.53;5046319;28;20251;-67
2021/06/24 10:34:18;;;;;;;3.20;2.77;;;;;;;22.31;100.00;97535.19;5047804;28;20204;-66
2021/06/24 10:37:14;;;;;;;4.90;3.13;;;;;;;22.42;100.00;97548.25;5023622;28;20250;-67
2021/06/24 10:39:42;;;;;;;4.10;3.10;;;;;;;22.41;100.00;97551.66;5048591;28;20287;-68
2021/06/24 10:42:09;;;;;;;3.63;2.93;;;;;;;22.41;100.00;97559.34;5042529;28;20911;-68
2021/06/24 10:44:42;;;;;;;3.47;3.00;;;;;;;22.41;100.00;97556.78;5048236;28;20259;-63
2021/06/24 10:47:08;;;;;;;3.60;3.30;;;;;;;22.40;100.00;97544.78;5042063;28;20225;-67
2021/06/24 10:49:35;;;;;;;2.70;2.50;;;;;;;22.41;100.00;97555.06;5041338;28;20221;-67
2021/06/24 10:52:24;;;;;;;3.20;2.90;;;;;;;22.41;100.00;97551.66;5046511;28;20256;-68
2021/06/24 10:54:54;;;;;;;3.20;2.90;;;;;;;22.35;100.00;97544.66;5026827;28;20280;-66
2021/06/24 10:57:34;;;;;;;3.10;2.90;;;;;;;22.30;100.00;97538.56;5045824;28;20327;-67
2021/06/24 11:00:38;;;;;;;3.23;2.90;;;;;;;22.42;100.00;97555.94;5040097;28;20208;-68
2021/06/24 11:03:08;;;;;;;3.00;2.70;;;;;;;22.40;100.00;97555.91;5046243;28;20231;-68
2021/06/24 11:05:42;;;;;;;3.33;3.03;;;;;;;22.34;100.00;97542.06;5039551;28;20264;-67
2021/06/24 11:08:16;;;;;;;2.90;2.70;;;;;;;22.41;100.00;97549.94;5051295;28;20294;-68
2021/06/24 11:10:56;;;;;;;3.40;2.90;;;;;;;22.41;100.00;97544.81;5044710;28;20291;-67
2021/06/24 11:13:35;;;;;;;3.33;3.03;;;;;;;22.42;100.00;97532.91;5046916;28;20594;-68
2021/06/24 11:16:06;;;;;;;3.07;2.77;;;;;;;22.21;100.00;97499.94;5046768;28;20192;-67
2021/06/24 11:18:38;;;;;;;3.07;2.83;;;;;;;22.41;100.00;97534.56;5048278;28;20232;-68
2021/06/24 11:21:07;;;;;;;3.17;2.97;;;;;;;22.41;100.00;97539.69;5046334;28;20228;-66
2021/06/24 11:23:48;;;;;;;4.07;3.10;;;;;;;22.42;100.00;97541.47;5045455;28;20227;-68
2021/06/24 11:26:17;;;;;;;3.00;2.70;;;;;;;22.42;100.00;97538.03;5041496;28;20288;-68
2021/06/24 11:29:06;;;;;;;6.13;3.07;;;;;;;22.37;100.00;97534.47;5038526;28;20205;-68